createdAt,value
2018-02-15T00:00:12.151Z,19.20
2018-02-15T00:02:39.649Z,17.47
2018-02-15T00:05:07.146Z,17.37
2018-02-15T00:07:34.640Z,17.27
2018-02-15T00:10:02.144Z,18.00
2018-02-15T00:12:29.638Z,16.30
2018-02-15T00:14:57.143Z,18.30
2018-02-15T00:17:24.630Z,19.63
2018-02-15T00:19:52.343Z,17.97
2018-02-15T00:22:19.874Z,18.00
2018-02-15T00:24:47.374Z,17.13
2018-02-15T00:27:14.880Z,19.07
2018-02-15T00:29:42.397Z,18.50
2018-02-15T00:32:09.888Z,18.13
2018-02-15T00:34:37.367Z,18.23
2018-02-15T00:37:04.877Z,16.70
2018-02-15T00:39:32.382Z,19.33
2018-02-15T00:41:59.890Z,18.33
2018-02-15T00:44:27.369Z,18.07
2018-02-15T00:46:54.862Z,17.73
2018-02-15T00:49:22.358Z,16.93
2018-02-15T00:51:49.852Z,17.53
2018-02-15T00:54:17.335Z,18.90
2018-02-15T00:56:44.844Z,18.27
2018-02-15T00:59:12.322Z,18.13
2018-02-15T01:01:39.804Z,18.40
2018-02-15T01:04:07.302Z,18.00
2018-02-15T01:06:34.788Z,17.93
2018-02-15T01:09:02.305Z,16.80
2018-02-15T01:11:29.793Z,18.03
2018-02-15T01:13:57.292Z,17.93
2018-02-15T01:16:26.789Z,17.53
2018-02-15T01:18:54.283Z,18.77
2018-02-15T01:21:21.764Z,16.87
2018-02-15T01:23:49.264Z,18.93
2018-02-15T01:26:16.768Z,16.87
2018-02-15T01:28:44.264Z,17.97
2018-02-15T01:31:11.736Z,18.03
2018-02-15T01:33:39.237Z,18.97
2018-02-15T01:36:06.724Z,17.47
2018-02-15T01:38:34.226Z,17.00
2018-02-15T01:43:35.429Z,18.90
2018-02-15T01:46:02.901Z,18.47
2018-02-15T01:48:30.376Z,16.83
2018-02-15T01:50:57.885Z,18.27
2018-02-15T01:53:25.380Z,17.07
2018-02-15T01:55:52.876Z,16.23
2018-02-15T01:58:20.369Z,18.53
2018-02-15T02:00:47.876Z,19.73
2018-02-15T02:03:15.385Z,18.53
2018-02-15T02:05:42.874Z,17.87
2018-02-15T02:08:10.366Z,19.20
2018-02-15T02:10:37.837Z,16.87
2018-02-15T02:13:05.326Z,16.07
2018-02-15T02:15:32.840Z,18.27
2018-02-15T02:18:00.329Z,18.03
2018-02-15T02:20:27.821Z,20.67
2018-02-15T02:22:55.425Z,18.50
2018-02-15T02:25:22.904Z,18.87
2018-02-15T02:27:50.402Z,19.03
2018-02-15T02:30:18.324Z,17.60
2018-02-15T02:32:46.794Z,18.97
2018-02-15T02:35:14.293Z,17.53
2018-02-15T02:37:41.806Z,18.27
2018-02-15T02:40:09.299Z,18.10
2018-02-15T02:42:36.796Z,18.47
2018-02-15T02:45:04.309Z,18.70
2018-02-15T02:47:31.796Z,18.80
2018-02-15T02:49:59.308Z,19.80
2018-02-15T02:52:26.794Z,19.50
2018-02-15T02:54:54.274Z,20.50
2018-02-15T02:57:21.777Z,19.53
2018-02-15T02:59:49.257Z,20.20
2018-02-15T03:02:16.780Z,18.40
2018-02-15T03:04:44.285Z,19.07
2018-02-15T03:07:11.794Z,17.97
2018-02-15T03:09:39.301Z,18.73
2018-02-15T03:12:06.790Z,18.20
2018-02-15T03:14:34.350Z,18.97
2018-02-15T03:17:01.842Z,17.63
2018-02-15T03:19:29.328Z,17.23
2018-02-15T03:21:56.830Z,18.47
2018-02-15T03:24:24.328Z,18.67
2018-02-15T03:26:51.811Z,17.70
2018-02-15T03:29:19.303Z,17.43
2018-02-15T03:31:46.792Z,19.63
2018-02-15T03:34:14.284Z,18.17
2018-02-15T03:36:41.783Z,19.03
2018-02-15T03:39:09.284Z,18.63
2018-02-15T03:41:36.774Z,18.90
2018-02-15T03:44:04.276Z,17.77
2018-02-15T03:46:31.768Z,17.10
2018-02-15T03:48:59.295Z,18.00
2018-02-15T03:51:26.815Z,18.50
2018-02-15T03:53:54.315Z,18.87
2018-02-15T03:56:21.816Z,18.97
2018-02-15T03:58:49.317Z,19.70
2018-02-15T04:01:16.809Z,19.80
2018-02-15T04:03:44.329Z,18.70
2018-02-15T04:06:11.824Z,19.00
2018-02-15T04:08:39.301Z,18.73
2018-02-15T04:11:06.825Z,18.17
2018-02-15T04:13:34.317Z,19.10
2018-02-15T04:16:01.831Z,20.07
2018-02-15T04:18:29.301Z,19.47
2018-02-15T04:20:56.793Z,17.73
2018-02-15T04:23:24.306Z,18.77
2018-02-15T04:25:51.781Z,20.03
2018-02-15T04:28:19.274Z,17.93
2018-02-15T04:30:46.776Z,17.93
2018-02-15T04:33:14.325Z,18.63
2018-02-15T04:35:41.808Z,18.07
2018-02-15T04:38:09.312Z,19.07
2018-02-15T04:40:36.812Z,15.93
2018-02-15T04:43:04.300Z,19.50
2018-02-15T04:45:31.789Z,18.87
2018-02-15T04:47:59.349Z,18.53
2018-02-15T04:50:26.818Z,18.70
2018-02-15T04:52:54.305Z,19.73
2018-02-15T04:55:21.800Z,18.57
2018-02-15T04:57:49.344Z,20.57
2018-02-15T05:00:16.866Z,18.70
2018-02-15T05:02:44.364Z,19.03
2018-02-15T05:05:11.884Z,19.40
2018-02-15T05:07:39.361Z,21.33
2018-02-15T05:10:06.864Z,19.37
2018-02-15T05:12:34.336Z,17.83
2018-02-15T05:15:01.860Z,20.23
2018-02-15T05:17:29.367Z,20.47
2018-02-15T05:19:56.835Z,19.37
2018-02-15T05:22:24.351Z,18.27
2018-02-15T05:24:51.830Z,19.17
2018-02-15T05:27:19.332Z,17.23
2018-02-15T05:29:48.396Z,18.80
2018-02-15T05:32:15.857Z,19.00
2018-02-15T05:34:43.338Z,17.33
2018-02-15T05:37:10.813Z,18.43
2018-02-15T05:39:38.309Z,19.80
2018-02-15T05:42:05.793Z,19.67
2018-02-15T05:44:33.262Z,18.73
2018-02-15T05:47:00.726Z,18.43
2018-02-15T05:49:28.232Z,19.27
2018-02-15T05:51:55.708Z,18.93
2018-02-15T05:54:23.194Z,19.17
2018-02-15T05:56:50.692Z,17.67
2018-02-15T05:59:18.680Z,19.17
2018-02-15T06:01:46.184Z,18.37
2018-02-15T06:04:13.689Z,17.47
2018-02-15T06:06:41.202Z,19.17
2018-02-15T06:09:08.737Z,17.53
2018-02-15T06:11:36.272Z,18.73
2018-02-15T06:14:03.788Z,18.77
2018-02-15T06:16:31.312Z,17.97
2018-02-15T06:18:58.815Z,16.90
2018-02-15T06:21:26.324Z,18.03
2018-02-15T06:23:53.846Z,18.27
2018-02-15T06:26:21.347Z,18.27
2018-02-15T06:28:48.876Z,18.13
2018-02-15T06:31:16.382Z,18.23
2018-02-15T06:33:43.949Z,15.87
2018-02-15T06:36:11.489Z,18.23
2018-02-15T06:38:39.030Z,18.03
2018-02-15T06:41:06.534Z,16.97
2018-02-15T06:43:34.069Z,16.93
2018-02-15T06:46:01.605Z,16.83
2018-02-15T06:48:29.197Z,16.43
2018-02-15T06:50:56.731Z,16.00
2018-02-15T06:53:24.249Z,16.90
2018-02-15T06:55:51.758Z,17.67
2018-02-15T06:58:19.265Z,17.90
2018-02-15T07:00:46.801Z,16.57
2018-02-15T07:03:14.332Z,17.87
2018-02-15T07:05:41.855Z,18.80
2018-02-15T07:08:09.374Z,16.70
2018-02-15T07:10:36.910Z,16.53
2018-02-15T07:13:05.529Z,17.33
2018-02-15T07:15:33.038Z,16.27
2018-02-15T07:18:00.573Z,18.03
2018-02-15T07:20:28.094Z,16.87
2018-02-15T07:22:55.606Z,17.53
2018-02-15T07:25:23.128Z,16.43
2018-02-15T07:27:50.781Z,18.30
2018-02-15T07:30:18.305Z,16.90
2018-02-15T07:32:45.819Z,18.27
2018-02-15T07:35:13.361Z,17.77
2018-02-15T07:37:40.940Z,17.50
2018-02-15T07:40:08.468Z,18.80
2018-02-15T07:42:36.015Z,17.50
2018-02-15T07:45:04.022Z,18.57
2018-02-15T07:47:31.522Z,17.70
2018-02-15T07:49:59.048Z,17.30
2018-02-15T07:52:27.128Z,17.83
2018-02-15T07:54:54.635Z,17.70
2018-02-15T07:57:22.170Z,18.73
2018-02-15T07:59:49.711Z,17.23
2018-02-15T08:02:17.234Z,19.13
2018-02-15T08:04:44.761Z,17.03
2018-02-15T08:07:12.274Z,18.03
2018-02-15T08:09:39.766Z,17.70
2018-02-15T08:12:07.292Z,18.40
2018-02-15T08:14:34.853Z,17.47
2018-02-15T08:17:02.364Z,18.67
2018-02-15T08:19:29.889Z,17.50
2018-02-15T08:21:57.443Z,18.07
2018-02-15T08:24:25.080Z,16.73
2018-02-15T08:26:52.600Z,18.13
2018-02-15T08:29:20.115Z,16.50
2018-02-15T08:31:47.660Z,17.23
2018-02-15T08:34:15.201Z,19.63
2018-02-15T08:36:42.734Z,17.23
2018-02-15T08:39:10.271Z,17.97
2018-02-15T08:41:37.797Z,18.07
2018-02-15T08:44:05.320Z,17.37
2018-02-15T08:46:33.018Z,20.47
2018-02-15T08:49:00.526Z,18.77
2018-02-15T08:51:28.082Z,19.40
2018-02-15T08:53:55.985Z,18.47
2018-02-15T08:56:23.511Z,19.33
2018-02-15T08:58:51.057Z,18.40
2018-02-15T09:01:18.588Z,19.23
2018-02-15T09:03:46.100Z,18.93
2018-02-15T09:06:13.637Z,17.73
2018-02-15T09:08:41.167Z,18.40
2018-02-15T09:11:08.736Z,19.60
2018-02-15T09:13:36.295Z,18.07
2018-02-15T09:16:03.808Z,20.00
2018-02-15T09:18:31.374Z,18.50
2018-02-15T09:20:58.875Z,17.03
2018-02-15T09:23:26.416Z,19.40
2018-02-15T09:25:53.927Z,19.27
2018-02-15T09:28:21.470Z,18.90
2018-02-15T09:30:48.996Z,20.30
2018-02-15T09:33:16.751Z,17.90
2018-02-15T09:35:44.283Z,20.23
2018-02-15T09:38:11.819Z,18.07
2018-02-15T09:40:39.349Z,17.40
2018-02-15T09:43:06.886Z,17.60
2018-02-15T09:45:34.453Z,18.43
2018-02-15T09:48:01.989Z,18.13
2018-02-15T09:50:29.489Z,19.30
2018-02-15T09:52:57.026Z,19.40
2018-02-15T09:55:24.536Z,19.13
2018-02-15T09:57:52.040Z,18.40
2018-02-15T10:00:19.572Z,19.13
2018-02-15T10:02:47.093Z,19.03
2018-02-15T10:05:14.654Z,19.97
2018-02-15T10:07:42.162Z,18.43
2018-02-15T10:10:09.669Z,21.33
2018-02-15T10:12:37.197Z,20.17
2018-02-15T10:15:05.461Z,18.03
2018-02-15T10:17:32.990Z,20.00
2018-02-15T10:20:00.526Z,18.83
2018-02-15T10:22:28.032Z,19.37
2018-02-15T10:24:55.534Z,19.60
2018-02-15T10:27:23.061Z,19.20
2018-02-15T10:29:50.588Z,19.73
2018-02-15T10:32:18.114Z,20.13
2018-02-15T10:34:45.622Z,19.57
2018-02-15T10:37:14.381Z,21.03
2018-02-15T10:39:41.887Z,20.40
2018-02-15T10:42:10.013Z,19.97
2018-02-15T10:44:37.519Z,19.73
2018-02-15T10:47:05.047Z,21.63
2018-02-15T10:49:32.594Z,20.20
2018-02-15T10:52:00.142Z,18.50
2018-02-15T10:54:27.726Z,19.00
2018-02-15T10:56:55.273Z,19.27
2018-02-15T10:59:22.833Z,19.80
2018-02-15T11:01:55.965Z,20.53
2018-02-15T11:04:29.075Z,18.47
2018-02-15T11:06:56.583Z,19.23
2018-02-15T11:09:24.086Z,18.77
2018-02-15T11:11:51.605Z,18.03
2018-02-15T11:14:19.107Z,17.87
2018-02-15T11:16:46.639Z,17.33
2018-02-15T11:19:14.148Z,18.57
2018-02-15T11:21:41.676Z,18.20
2018-02-15T11:24:09.679Z,17.07
2018-02-15T11:26:37.190Z,19.90
2018-02-15T11:29:04.738Z,17.87
2018-02-15T11:31:32.252Z,16.73
2018-02-15T11:33:59.766Z,17.80
2018-02-15T11:36:27.313Z,16.47
2018-02-15T11:38:54.860Z,16.53
2018-02-15T11:41:22.405Z,17.00
2018-02-15T11:43:49.906Z,16.60
2018-02-15T11:46:17.453Z,17.83
2018-02-15T11:48:45.117Z,17.10
2018-02-15T11:51:12.780Z,16.43
2018-02-15T11:53:40.443Z,16.37
2018-02-15T11:56:08.013Z,16.53
2018-02-15T11:58:35.534Z,17.60
2018-02-15T12:01:03.090Z,18.10
2018-02-15T12:03:30.649Z,17.70
2018-02-15T12:05:58.240Z,18.20
2018-02-15T12:08:25.799Z,17.80
2018-02-15T12:10:53.313Z,15.37
2018-02-15T12:13:20.889Z,16.47
2018-02-15T12:15:48.417Z,15.13
2018-02-15T12:18:16.026Z,15.13
2018-02-15T12:20:44.795Z,15.80
2018-02-15T12:23:12.600Z,15.53
2018-02-15T12:25:40.176Z,15.00
2018-02-15T12:28:07.687Z,14.67
2018-02-15T12:30:35.265Z,14.23
2018-02-15T12:33:02.795Z,13.83
2018-02-15T12:35:30.322Z,13.50
2018-02-15T12:37:57.864Z,12.17
2018-02-15T12:40:25.693Z,13.17
2018-02-15T12:42:53.228Z,11.50
2018-02-15T12:45:20.774Z,12.67
2018-02-15T12:47:48.312Z,12.60
2018-02-15T12:50:15.843Z,13.60
2018-02-15T12:52:43.358Z,12.57
2018-02-15T12:55:10.895Z,13.13
2018-02-15T12:57:38.418Z,12.70
2018-02-15T13:00:05.967Z,12.30
2018-02-15T13:02:33.507Z,13.23
2018-02-15T13:05:01.082Z,11.87
2018-02-15T13:07:28.728Z,12.00
2018-02-15T13:09:56.258Z,13.27
2018-02-15T13:12:35.461Z,12.73
2018-02-15T13:15:03.054Z,12.43
2018-02-15T13:17:30.556Z,12.90
2018-02-15T13:20:18.780Z,11.67
2018-02-15T13:22:49.169Z,13.47
2018-02-15T13:25:16.680Z,13.43
2018-02-15T13:27:55.863Z,13.73
2018-02-15T13:30:23.362Z,14.10
2018-02-15T13:32:50.879Z,12.87
2018-02-15T13:35:18.408Z,13.47
2018-02-15T13:37:45.938Z,14.80
2018-02-15T13:40:13.456Z,13.07
2018-02-15T13:42:40.979Z,13.67
2018-02-15T13:45:08.501Z,13.80
2018-02-15T13:47:36.029Z,13.77
2018-02-15T13:50:03.543Z,13.33
2018-02-15T13:52:32.378Z,13.50
2018-02-15T13:55:00.749Z,13.87
2018-02-15T13:57:28.289Z,13.90
2018-02-15T13:59:55.824Z,15.37
2018-02-15T14:02:23.371Z,15.60
2018-02-15T14:04:50.901Z,13.67
2018-02-15T14:07:18.415Z,13.87
2018-02-15T14:09:45.951Z,13.10
2018-02-15T14:12:13.664Z,15.43
2018-02-15T14:14:41.186Z,13.57
2018-02-15T14:17:08.717Z,14.23
2018-02-15T14:19:36.246Z,14.03
2018-02-15T14:22:03.755Z,13.73
2018-02-15T14:24:31.470Z,14.63
2018-02-15T14:26:59.019Z,15.47
2018-02-15T14:29:26.576Z,15.77
2018-02-15T14:31:54.093Z,16.13
2018-02-15T14:34:21.663Z,16.93
2018-02-15T14:36:49.238Z,15.90
2018-02-15T14:39:16.787Z,14.40
2018-02-15T14:41:44.297Z,15.70
2018-02-15T14:44:11.857Z,17.33
2018-02-15T14:46:39.392Z,17.30
2018-02-15T14:49:06.912Z,15.37
2018-02-15T14:51:34.455Z,17.57
2018-02-15T14:54:01.981Z,16.97
2018-02-15T14:56:29.492Z,17.50
2018-02-15T14:58:56.995Z,18.40
2018-02-15T15:01:24.536Z,18.40
2018-02-15T15:03:52.066Z,19.27
2018-02-15T15:06:19.573Z,18.03
2018-02-15T15:08:47.117Z,19.50
2018-02-15T15:11:14.639Z,18.10
2018-02-15T15:13:42.157Z,19.50
2018-02-15T15:16:09.691Z,18.20
2018-02-15T15:18:37.252Z,17.27
2018-02-15T15:21:05.668Z,18.73
2018-02-15T15:23:33.208Z,18.40
2018-02-15T15:26:00.716Z,17.43
2018-02-15T15:28:29.200Z,17.93
2018-02-15T15:30:56.720Z,18.80
2018-02-15T15:33:24.262Z,17.07
2018-02-15T15:35:51.810Z,18.73
2018-02-15T15:38:19.424Z,18.47
2018-02-15T15:40:47.182Z,16.80
2018-02-15T15:43:14.858Z,17.13
2018-02-15T15:45:42.397Z,18.03
2018-02-15T15:48:09.947Z,17.47
2018-02-15T15:50:37.485Z,17.40
2018-02-15T15:53:05.022Z,16.73
2018-02-15T15:55:32.550Z,17.37
2018-02-15T15:58:00.114Z,16.57
2018-02-15T16:00:27.674Z,15.10
2018-02-15T16:02:55.226Z,18.23
2018-02-15T16:05:22.749Z,16.87
2018-02-15T16:07:50.293Z,15.87
2018-02-15T16:10:17.831Z,15.97
2018-02-15T16:12:45.363Z,17.87
2018-02-15T16:15:12.875Z,16.23
2018-02-15T16:17:40.417Z,15.73
2018-02-15T16:20:07.952Z,17.87
2018-02-15T16:22:35.489Z,16.50
2018-02-15T16:25:03.072Z,17.37
2018-02-15T16:27:30.597Z,16.13
2018-02-15T16:29:58.121Z,17.30
2018-02-15T16:32:25.654Z,16.50
2018-02-15T16:34:53.195Z,18.03
2018-02-15T16:37:20.733Z,16.77
2018-02-15T16:39:48.260Z,17.47
2018-02-15T16:42:15.808Z,16.30
2018-02-15T16:44:43.344Z,16.57
2018-02-15T16:47:10.857Z,17.10
2018-02-15T16:49:38.402Z,16.07
2018-02-15T16:52:05.922Z,16.77
2018-02-15T16:54:33.461Z,17.27
2018-02-15T16:57:00.978Z,17.43
2018-02-15T16:59:28.525Z,18.33
2018-02-15T17:01:56.074Z,17.33
2018-02-15T17:04:23.601Z,18.37
2018-02-15T17:06:51.118Z,18.13
2018-02-15T17:09:18.648Z,18.00
2018-02-15T17:11:46.175Z,18.10
2018-02-15T17:14:13.679Z,19.27
2018-02-15T17:16:41.306Z,18.90
2018-02-15T17:19:08.861Z,18.67
2018-02-15T17:21:36.385Z,17.83
2018-02-15T17:24:03.950Z,20.23
2018-02-15T17:26:31.570Z,20.30
2018-02-15T17:28:59.112Z,20.30
2018-02-15T17:31:26.651Z,21.77
2018-02-15T17:33:54.232Z,20.10
2018-02-15T17:36:21.806Z,18.90
2018-02-15T17:38:49.347Z,19.17
2018-02-15T17:41:16.877Z,19.67
2018-02-15T17:43:44.413Z,19.90
2018-02-15T17:46:11.948Z,19.83
2018-02-15T17:48:39.475Z,20.30
2018-02-15T17:51:06.999Z,19.73
2018-02-15T17:53:36.501Z,19.73
2018-02-15T17:56:04.055Z,20.70
2018-02-15T17:58:31.575Z,19.53
2018-02-15T18:00:59.120Z,19.80
2018-02-15T18:03:26.694Z,20.80
2018-02-15T18:05:54.293Z,21.93
2018-02-15T18:08:21.921Z,20.87
2018-02-15T18:10:49.451Z,20.43
2018-02-15T18:13:16.980Z,20.37
2018-02-15T18:15:44.496Z,21.63
2018-02-15T18:18:12.027Z,22.13
2018-02-15T18:20:39.534Z,21.07
2018-02-15T18:23:07.061Z,20.53
2018-02-15T18:25:34.567Z,20.83
2018-02-15T18:28:02.101Z,20.93
2018-02-15T18:30:30.883Z,21.40
2018-02-15T18:32:58.423Z,21.10
2018-02-15T18:35:26.007Z,20.77
2018-02-15T18:37:53.553Z,22.80
2018-02-15T18:40:21.107Z,21.43
2018-02-15T18:42:48.750Z,19.83
2018-02-15T18:45:16.422Z,23.13
2018-02-15T18:47:43.981Z,23.23
2018-02-15T18:50:11.540Z,22.33
2018-02-15T18:52:39.073Z,21.30
2018-02-15T18:55:06.605Z,23.03
2018-02-15T18:57:34.122Z,23.17
2018-02-15T19:00:01.660Z,25.00
2018-02-15T19:02:29.200Z,24.10
2018-02-15T19:04:56.740Z,25.40
2018-02-15T19:07:24.306Z,24.40
2018-02-15T19:09:51.814Z,24.83
2018-02-15T19:12:19.338Z,24.07
2018-02-15T19:14:46.885Z,23.23
2018-02-15T19:17:14.404Z,24.07
2018-02-15T19:19:41.929Z,24.53
2018-02-15T19:22:09.464Z,24.50
2018-02-15T19:24:37.014Z,25.07
2018-02-15T19:27:04.576Z,24.37
2018-02-15T19:29:32.165Z,25.57
2018-02-15T19:31:59.709Z,23.93
2018-02-15T19:34:27.239Z,24.17
2018-02-15T19:36:54.801Z,24.13
2018-02-15T19:39:22.326Z,24.50
2018-02-15T19:41:49.874Z,24.77
2018-02-15T19:44:17.383Z,24.30
2018-02-15T19:46:44.933Z,24.27
2018-02-15T19:49:12.461Z,25.07
2018-02-15T19:51:39.989Z,24.50
2018-02-15T19:54:07.550Z,24.97
2018-02-15T19:56:35.077Z,25.57
2018-02-15T19:59:02.591Z,24.53
2018-02-15T20:01:30.130Z,25.20
2018-02-15T20:03:57.657Z,26.33
2018-02-15T20:06:25.245Z,25.27
2018-02-15T20:08:52.807Z,24.60
2018-02-15T20:11:20.337Z,24.50
2018-02-15T20:13:47.894Z,25.30
2018-02-15T20:16:15.411Z,25.83
2018-02-15T20:18:42.941Z,25.13
2018-02-15T20:21:10.464Z,26.40
2018-02-15T20:23:38.001Z,26.50
2018-02-15T20:26:11.037Z,25.23
2018-02-15T20:28:38.614Z,24.90
2018-02-15T20:31:06.129Z,26.87
2018-02-15T20:33:33.647Z,26.03
2018-02-15T20:36:01.217Z,27.17
2018-02-15T20:38:34.398Z,28.10
2018-02-15T20:41:01.930Z,26.20
2018-02-15T20:43:29.963Z,27.67
2018-02-15T20:45:57.516Z,27.60
2018-02-15T20:48:25.042Z,28.73
2018-02-15T20:50:58.106Z,29.73
2018-02-15T20:53:31.183Z,28.43
2018-02-15T20:55:58.701Z,30.47
2018-02-15T20:58:26.226Z,28.83
2018-02-15T21:00:53.747Z,28.40
2018-02-15T21:03:21.289Z,28.40
2018-02-15T21:05:48.809Z,28.93
2018-02-15T21:08:16.354Z,28.93
2018-02-15T21:10:44.768Z,29.07
2018-02-15T21:13:12.298Z,28.10
2018-02-15T21:15:39.814Z,29.20
2018-02-15T21:18:07.330Z,29.30
2018-02-15T21:20:34.911Z,30.90
2018-02-15T21:23:02.476Z,30.70
2018-02-15T21:25:30.042Z,31.80
2018-02-15T21:27:57.563Z,31.37
2018-02-15T21:30:25.172Z,30.70
2018-02-15T21:32:52.705Z,32.43
2018-02-15T21:35:20.237Z,29.97
2018-02-15T21:37:47.770Z,30.30
2018-02-15T21:40:15.300Z,30.70
2018-02-15T21:42:42.873Z,31.77
2018-02-15T21:45:10.397Z,31.93
2018-02-15T21:47:37.914Z,30.93
2018-02-15T21:50:05.468Z,31.70
2018-02-15T21:52:33.001Z,32.33
2018-02-15T21:55:00.562Z,31.17
2018-02-15T21:57:28.092Z,32.80
2018-02-15T21:59:55.633Z,32.47
2018-02-15T22:02:23.155Z,33.60
2018-02-15T22:04:50.667Z,31.13
2018-02-15T22:07:18.182Z,32.03
2018-02-15T22:09:45.722Z,31.93
2018-02-15T22:12:13.286Z,31.50
2018-02-15T22:14:40.823Z,31.57
2018-02-15T22:17:08.373Z,31.87
2018-02-15T22:19:35.906Z,31.30
2018-02-15T22:22:03.426Z,31.87
2018-02-15T22:24:30.914Z,31.47
2018-02-15T22:26:58.431Z,30.17
2018-02-15T22:29:25.961Z,31.93
2018-02-15T22:31:53.452Z,30.90
2018-02-15T22:34:20.980Z,31.93
2018-02-15T22:36:48.474Z,30.63
2018-02-15T22:39:15.985Z,32.40
2018-02-15T22:41:43.472Z,32.17
2018-02-15T22:44:10.951Z,30.03
2018-02-15T22:46:38.448Z,31.30
2018-02-15T22:49:05.930Z,31.87
2018-02-15T22:51:33.427Z,32.47
2018-02-15T22:54:00.926Z,32.20
2018-02-15T22:56:28.412Z,32.07
2018-02-15T22:58:55.988Z,31.83
2018-02-15T23:01:23.466Z,32.87
2018-02-15T23:03:50.982Z,31.43
2018-02-15T23:06:18.502Z,31.50
2018-02-15T23:08:45.978Z,32.23
2018-02-15T23:11:13.471Z,32.30
2018-02-15T23:13:40.968Z,33.53
2018-02-15T23:16:08.469Z,32.53
2018-02-15T23:18:36.005Z,32.43
2018-02-15T23:21:03.506Z,31.23
2018-02-15T23:23:31.049Z,32.40
2018-02-15T23:25:58.531Z,31.70
2018-02-15T23:28:26.034Z,31.53
2018-02-15T23:30:53.548Z,32.20
2018-02-15T23:33:21.059Z,32.33
2018-02-15T23:35:48.572Z,31.93
2018-02-15T23:38:16.061Z,31.90
2018-02-15T23:40:43.574Z,32.30
2018-02-15T23:43:11.092Z,31.00
2018-02-15T23:45:38.587Z,33.03
2018-02-15T23:48:06.104Z,33.43
2018-02-15T23:50:33.605Z,32.83
2018-02-15T23:53:01.135Z,33.83
2018-02-15T23:55:28.641Z,32.07
2018-02-15T23:57:56.140Z,34.03
